sensor_id;sensor_type;location;lat;lon;timestamp;P1;durP1;ratioP1;P2;durP2;ratioP2
12445;SDS011;6287;50.984;7.022;2023-10-19T00:00:41;7.40;;;4.67;;
12445;SDS011;6287;50.984;7.022;2023-10-19T00:03:16;6.43;;;5.33;;
12445;SDS011;6287;50.984;7.022;2023-10-19T00:05:43;6.67;;;5.27;;
12445;SDS011;6287;50.984;7.022;2023-10-19T00:08:10;7.13;;;5.57;;
12445;SDS011;6287;50.984;7.022;2023-10-19T00:10:49;6.83;;;5.70;;
12445;SDS011;6287;50.984;7.022;2023-10-19T00:13:28;8.17;;;5.37;;
12445;SDS011;6287;50.984;7.022;2023-10-19T00:15:55;7.90;;;5.60;;
12445;SDS011;6287;50.984;7.022;2023-10-19T00:18:23;7.97;;;6.00;;
12445;SDS011;6287;50.984;7.022;2023-10-19T00:20:54;8.63;;;6.03;;
12445;SDS011;6287;50.984;7.022;2023-10-19T00:23:38;9.30;;;6.60;;
12445;SDS011;6287;50.984;7.022;2023-10-19T00:26:05;7.87;;;5.97;;
12445;SDS011;6287;50.984;7.022;2023-10-19T00:28:35;7.70;;;5.87;;
12445;SDS011;6287;50.984;7.022;2023-10-19T00:31:01;7.50;;;6.00;;
12445;SDS011;6287;50.984;7.022;2023-10-19T00:33:36;8.07;;;6.13;;
12445;SDS011;6287;50.984;7.022;2023-10-19T00:36:06;10.00;;;6.87;;
12445;SDS011;6287;50.984;7.022;2023-10-19T00:38:35;8.27;;;5.93;;
12445;SDS011;6287;50.984;7.022;2023-10-19T00:41:01;6.70;;;5.93;;
12445;SDS011;6287;50.984;7.022;2023-10-19T00:43:37;9.50;;;6.00;;
12445;SDS011;6287;50.984;7.022;2023-10-19T00:46:12;7.77;;;5.87;;
12445;SDS011;6287;50.984;7.022;2023-10-19T00:51:29;8.17;;;6.20;;
12445;SDS011;6287;50.984;7.022;2023-10-19T00:57:00;7.63;;;6.20;;
12445;SDS011;6287;50.984;7.022;2023-10-19T00:59:37;10.80;;;6.27;;
12445;SDS011;6287;50.984;7.022;2023-10-19T01:02:10;7.83;;;6.17;;
12445;SDS011;6287;50.984;7.022;2023-10-19T01:04:46;8.43;;;6.10;;
12445;SDS011;6287;50.984;7.022;2023-10-19T01:07:20;9.43;;;6.20;;
12445;SDS011;6287;50.984;7.022;2023-10-19T01:09:55;6.83;;;5.83;;
12445;SDS011;6287;50.984;7.022;2023-10-19T01:12:24;6.20;;;5.47;;
12445;SDS011;6287;50.984;7.022;2023-10-19T01:17:51;7.53;;;5.93;;
12445;SDS011;6287;50.984;7.022;2023-10-19T01:20:37;8.57;;;6.27;;
12445;SDS011;6287;50.984;7.022;2023-10-19T01:23:30;8.20;;;5.87;;
12445;SDS011;6287;50.984;7.022;2023-10-19T01:25:58;9.33;;;6.27;;
12445;SDS011;6287;50.984;7.022;2023-10-19T01:28:25;8.63;;;6.27;;
12445;SDS011;6287;50.984;7.022;2023-10-19T01:31:20;8.77;;;6.57;;
12445;SDS011;6287;50.984;7.022;2023-10-19T01:33:52;9.50;;;6.27;;
12445;SDS011;6287;50.984;7.022;2023-10-19T01:36:31;8.77;;;5.67;;
12445;SDS011;6287;50.984;7.022;2023-10-19T01:39:02;7.63;;;6.40;;
12445;SDS011;6287;50.984;7.022;2023-10-19T01:41:34;7.83;;;6.07;;
12445;SDS011;6287;50.984;7.022;2023-10-19T01:44:00;7.67;;;6.53;;
12445;SDS011;6287;50.984;7.022;2023-10-19T01:46:38;8.30;;;6.27;;
12445;SDS011;6287;50.984;7.022;2023-10-19T01:49:04;9.33;;;6.13;;
12445;SDS011;6287;50.984;7.022;2023-10-19T01:51:30;7.67;;;6.43;;
12445;SDS011;6287;50.984;7.022;2023-10-19T01:53:58;8.87;;;6.17;;
12445;SDS011;6287;50.984;7.022;2023-10-19T01:56:25;6.80;;;6.03;;
12445;SDS011;6287;50.984;7.022;2023-10-19T01:58:54;8.97;;;5.90;;
12445;SDS011;6287;50.984;7.022;2023-10-19T02:01:20;6.43;;;5.80;;
12445;SDS011;6287;50.984;7.022;2023-10-19T02:03:54;7.63;;;5.90;;
12445;SDS011;6287;50.984;7.022;2023-10-19T02:06:24;8.33;;;6.27;;
12445;SDS011;6287;50.984;7.022;2023-10-19T02:09:05;7.33;;;5.60;;
12445;SDS011;6287;50.984;7.022;2023-10-19T02:11:34;7.37;;;5.57;;
12445;SDS011;6287;50.984;7.022;2023-10-19T02:14:03;7.23;;;5.53;;
12445;SDS011;6287;50.984;7.022;2023-10-19T02:16:38;7.23;;;5.70;;
12445;SDS011;6287;50.984;7.022;2023-10-19T02:19:04;7.67;;;5.53;;
12445;SDS011;6287;50.984;7.022;2023-10-19T02:21:32;6.97;;;5.27;;
12445;SDS011;6287;50.984;7.022;2023-10-19T02:24:04;7.57;;;5.70;;
12445;SDS011;6287;50.984;7.022;2023-10-19T02:26:41;5.30;;;4.80;;
12445;SDS011;6287;50.984;7.022;2023-10-19T02:29:08;5.97;;;4.97;;
12445;SDS011;6287;50.984;7.022;2023-10-19T02:31:39;6.83;;;5.00;;
12445;SDS011;6287;50.984;7.022;2023-10-19T02:34:06;6.57;;;5.07;;
12445;SDS011;6287;50.984;7.022;2023-10-19T02:36:37;7.40;;;6.10;;
12445;SDS011;6287;50.984;7.022;2023-10-19T02:39:07;7.47;;;5.77;;
12445;SDS011;6287;50.984;7.022;2023-10-19T02:41:37;5.90;;;4.97;;
12445;SDS011;6287;50.984;7.022;2023-10-19T02:44:09;6.00;;;4.97;;
12445;SDS011;6287;50.984;7.022;2023-10-19T02:46:44;7.87;;;5.77;;
12445;SDS011;6287;50.984;7.022;2023-10-19T02:49:33;5.60;;;4.60;;
12445;SDS011;6287;50.984;7.022;2023-10-19T02:52:03;6.90;;;5.10;;
12445;SDS011;6287;50.984;7.022;2023-10-19T02:54:29;6.63;;;5.27;;
12445;SDS011;6287;50.984;7.022;2023-10-19T02:56:57;5.30;;;4.50;;
12445;SDS011;6287;50.984;7.022;2023-10-19T02:59:24;4.87;;;4.43;;
12445;SDS011;6287;50.984;7.022;2023-10-19T03:01:58;5.17;;;4.43;;
12445;SDS011;6287;50.984;7.022;2023-10-19T03:04:37;6.23;;;5.30;;
12445;SDS011;6287;50.984;7.022;2023-10-19T03:07:06;5.13;;;4.17;;
12445;SDS011;6287;50.984;7.022;2023-10-19T03:09:37;5.07;;;4.50;;
12445;SDS011;6287;50.984;7.022;2023-10-19T03:12:03;7.07;;;5.20;;
12445;SDS011;6287;50.984;7.022;2023-10-19T03:14:35;4.97;;;4.17;;
12445;SDS011;6287;50.984;7.022;2023-10-19T03:17:03;7.10;;;4.97;;
12445;SDS011;6287;50.984;7.022;2023-10-19T03:19:33;5.20;;;4.53;;
12445;SDS011;6287;50.984;7.022;2023-10-19T03:21:59;5.67;;;4.60;;
12445;SDS011;6287;50.984;7.022;2023-10-19T03:24:27;5.33;;;4.83;;
12445;SDS011;6287;50.984;7.022;2023-10-19T03:27:08;5.73;;;4.63;;
12445;SDS011;6287;50.984;7.022;2023-10-19T03:29:40;6.27;;;4.97;;
12445;SDS011;6287;50.984;7.022;2023-10-19T03:32:13;5.80;;;4.73;;
12445;SDS011;6287;50.984;7.022;2023-10-19T03:34:41;6.17;;;4.80;;
12445;SDS011;6287;50.984;7.022;2023-10-19T03:37:12;4.90;;;4.40;;
12445;SDS011;6287;50.984;7.022;2023-10-19T03:39:39;5.27;;;4.67;;
12445;SDS011;6287;50.984;7.022;2023-10-19T03:42:06;4.60;;;4.20;;
12445;SDS011;6287;50.984;7.022;2023-10-19T03:44:32;5.93;;;4.40;;
12445;SDS011;6287;50.984;7.022;2023-10-19T03:47:15;5.63;;;4.40;;
12445;SDS011;6287;50.984;7.022;2023-10-19T03:49:50;6.77;;;4.53;;
12445;SDS011;6287;50.984;7.022;2023-10-19T03:52:15;4.70;;;4.30;;
12445;SDS011;6287;50.984;7.022;2023-10-19T03:54:44;6.47;;;4.53;;
12445;SDS011;6287;50.984;7.022;2023-10-19T03:57:13;6.37;;;4.47;;
12445;SDS011;6287;50.984;7.022;2023-10-19T03:59:50;4.73;;;4.20;;
12445;SDS011;6287;50.984;7.022;2023-10-19T04:02:25;4.40;;;3.80;;
12445;SDS011;6287;50.984;7.022;2023-10-19T04:04:57;6.77;;;5.03;;
12445;SDS011;6287;50.984;7.022;2023-10-19T04:07:26;4.90;;;4.30;;
12445;SDS011;6287;50.984;7.022;2023-10-19T04:09:56;4.60;;;3.93;;
12445;SDS011;6287;50.984;7.022;2023-10-19T04:12:23;5.13;;;3.90;;
12445;SDS011;6287;50.984;7.022;2023-10-19T04:14:49;4.03;;;3.50;;
12445;SDS011;6287;50.984;7.022;2023-10-19T04:17:16;5.87;;;4.43;;
12445;SDS011;6287;50.984;7.022;2023-10-19T04:19:46;4.73;;;3.93;;
12445;SDS011;6287;50.984;7.022;2023-10-19T04:22:13;4.47;;;3.73;;
12445;SDS011;6287;50.984;7.022;2023-10-19T04:24:47;5.87;;;3.77;;
12445;SDS011;6287;50.984;7.022;2023-10-19T04:27:13;4.90;;;3.87;;
12445;SDS011;6287;50.984;7.022;2023-10-19T04:29:39;5.70;;;3.80;;
12445;SDS011;6287;50.984;7.022;2023-10-19T04:32:09;5.57;;;3.87;;
12445;SDS011;6287;50.984;7.022;2023-10-19T04:34:39;3.80;;;3.50;;
12445;SDS011;6287;50.984;7.022;2023-10-19T04:37:04;4.57;;;3.57;;
12445;SDS011;6287;50.984;7.022;2023-10-19T04:39:31;5.17;;;3.80;;
12445;SDS011;6287;50.984;7.022;2023-10-19T04:41:58;4.20;;;3.80;;
12445;SDS011;6287;50.984;7.022;2023-10-19T04:44:24;4.20;;;3.80;;
12445;SDS011;6287;50.984;7.022;2023-10-19T04:46:53;5.33;;;3.60;;
12445;SDS011;6287;50.984;7.022;2023-10-19T04:49:18;5.57;;;3.90;;
12445;SDS011;6287;50.984;7.022;2023-10-19T04:51:47;4.20;;;3.60;;
12445;SDS011;6287;50.984;7.022;2023-10-19T04:54:14;5.20;;;3.53;;
12445;SDS011;6287;50.984;7.022;2023-10-19T04:56:44;4.47;;;3.80;;
12445;SDS011;6287;50.984;7.022;2023-10-19T04:59:10;4.07;;;3.67;;
12445;SDS011;6287;50.984;7.022;2023-10-19T05:01:41;3.80;;;3.40;;
12445;SDS011;6287;50.984;7.022;2023-10-19T05:04:06;4.00;;;3.33;;
12445;SDS011;6287;50.984;7.022;2023-10-19T05:06:32;5.57;;;3.60;;
12445;SDS011;6287;50.984;7.022;2023-10-19T05:08:57;5.20;;;3.50;;
12445;SDS011;6287;50.984;7.022;2023-10-19T05:11:23;4.17;;;3.73;;
12445;SDS011;6287;50.984;7.022;2023-10-19T05:13:48;3.50;;;3.20;;
12445;SDS011;6287;50.984;7.022;2023-10-19T05:16:14;3.50;;;3.20;;
12445;SDS011;6287;50.984;7.022;2023-10-19T05:18:42;6.30;;;3.70;;
12445;SDS011;6287;50.984;7.022;2023-10-19T05:21:08;5.13;;;3.90;;
12445;SDS011;6287;50.984;7.022;2023-10-19T05:23:35;6.83;;;4.10;;
12445;SDS011;6287;50.984;7.022;2023-10-19T05:26:01;4.30;;;3.60;;
12445;SDS011;6287;50.984;7.022;2023-10-19T05:28:29;4.10;;;3.70;;
12445;SDS011;6287;50.984;7.022;2023-10-19T05:30:55;4.23;;;3.43;;
12445;SDS011;6287;50.984;7.022;2023-10-19T05:33:24;3.60;;;3.20;;
12445;SDS011;6287;50.984;7.022;2023-10-19T05:35:52;5.30;;;3.27;;
12445;SDS011;6287;50.984;7.022;2023-10-19T05:38:22;4.00;;;3.30;;
12445;SDS011;6287;50.984;7.022;2023-10-19T05:40:52;2.87;;;2.67;;
12445;SDS011;6287;50.984;7.022;2023-10-19T05:43:17;3.37;;;3.07;;
12445;SDS011;6287;50.984;7.022;2023-10-19T05:45:45;5.13;;;3.10;;
12445;SDS011;6287;50.984;7.022;2023-10-19T05:48:17;8.67;;;3.00;;
12445;SDS011;6287;50.984;7.022;2023-10-19T05:50:43;3.63;;;3.23;;
12445;SDS011;6287;50.984;7.022;2023-10-19T05:53:10;3.93;;;3.37;;
12445;SDS011;6287;50.984;7.022;2023-10-19T05:55:38;3.93;;;3.47;;
12445;SDS011;6287;50.984;7.022;2023-10-19T05:58:06;5.57;;;3.50;;
12445;SDS011;6287;50.984;7.022;2023-10-19T06:00:34;3.73;;;3.10;;
12445;SDS011;6287;50.984;7.022;2023-10-19T06:02:59;4.13;;;3.03;;
12445;SDS011;6287;50.984;7.022;2023-10-19T06:05:25;6.10;;;3.33;;
12445;SDS011;6287;50.984;7.022;2023-10-19T06:07:55;3.33;;;3.00;;
12445;SDS011;6287;50.984;7.022;2023-10-19T06:10:23;4.23;;;2.80;;
12445;SDS011;6287;50.984;7.022;2023-10-19T06:12:52;3.73;;;3.33;;
12445;SDS011;6287;50.984;7.022;2023-10-19T06:15:19;3.47;;;3.10;;
12445;SDS011;6287;50.984;7.022;2023-10-19T06:17:50;4.97;;;3.50;;
12445;SDS011;6287;50.984;7.022;2023-10-19T06:20:15;3.60;;;3.27;;
12445;SDS011;6287;50.984;7.022;2023-10-19T06:22:49;3.63;;;3.23;;
12445;SDS011;6287;50.984;7.022;2023-10-19T06:25:21;3.97;;;3.53;;
12445;SDS011;6287;50.984;7.022;2023-10-19T06:27:48;4.43;;;3.83;;
12445;SDS011;6287;50.984;7.022;2023-10-19T06:30:17;5.03;;;3.60;;
12445;SDS011;6287;50.984;7.022;2023-10-19T06:32:51;4.87;;;3.93;;
12445;SDS011;6287;50.984;7.022;2023-10-19T06:35:20;5.90;;;3.87;;
12445;SDS011;6287;50.984;7.022;2023-10-19T06:37:47;4.33;;;3.90;;
12445;SDS011;6287;50.984;7.022;2023-10-19T06:40:13;8.43;;;4.23;;
12445;SDS011;6287;50.984;7.022;2023-10-19T06:42:40;6.67;;;4.20;;
12445;SDS011;6287;50.984;7.022;2023-10-19T06:45:08;5.57;;;4.53;;
12445;SDS011;6287;50.984;7.022;2023-10-19T06:47:38;4.87;;;4.37;;
12445;SDS011;6287;50.984;7.022;2023-10-19T06:50:17;6.20;;;4.17;;
12445;SDS011;6287;50.984;7.022;2023-10-19T06:52:44;8.00;;;4.53;;
12445;SDS011;6287;50.984;7.022;2023-10-19T06:55:16;6.57;;;4.30;;
12445;SDS011;6287;50.984;7.022;2023-10-19T06:57:50;7.30;;;4.20;;
12445;SDS011;6287;50.984;7.022;2023-10-19T07:00:18;6.50;;;4.30;;
12445;SDS011;6287;50.984;7.022;2023-10-19T07:02:50;5.87;;;4.27;;
12445;SDS011;6287;50.984;7.022;2023-10-19T07:05:18;7.87;;;4.70;;
12445;SDS011;6287;50.984;7.022;2023-10-19T07:07:49;5.10;;;4.10;;
12445;SDS011;6287;50.984;7.022;2023-10-19T07:10:17;4.90;;;4.23;;
12445;SDS011;6287;50.984;7.022;2023-10-19T07:12:55;6.67;;;4.67;;
12445;SDS011;6287;50.984;7.022;2023-10-19T07:15:22;5.07;;;4.57;;
12445;SDS011;6287;50.984;7.022;2023-10-19T07:17:49;8.33;;;4.40;;
12445;SDS011;6287;50.984;7.022;2023-10-19T07:20:19;6.90;;;4.60;;
12445;SDS011;6287;50.984;7.022;2023-10-19T07:23:03;8.30;;;4.17;;
12445;SDS011;6287;50.984;7.022;2023-10-19T07:25:45;6.90;;;4.27;;
12445;SDS011;6287;50.984;7.022;2023-10-19T07:28:24;5.70;;;4.03;;
12445;SDS011;6287;50.984;7.022;2023-10-19T07:30:54;6.43;;;4.53;;
12445;SDS011;6287;50.984;7.022;2023-10-19T07:33:21;5.87;;;4.30;;
12445;SDS011;6287;50.984;7.022;2023-10-19T07:35:52;6.47;;;4.30;;
12445;SDS011;6287;50.984;7.022;2023-10-19T07:38:19;4.53;;;3.97;;
12445;SDS011;6287;50.984;7.022;2023-10-19T07:40:46;7.37;;;4.50;;
12445;SDS011;6287;50.984;7.022;2023-10-19T07:43:13;7.47;;;4.37;;
12445;SDS011;6287;50.984;7.022;2023-10-19T07:45:38;5.23;;;3.90;;
12445;SDS011;6287;50.984;7.022;2023-10-19T07:48:10;6.53;;;4.10;;
12445;SDS011;6287;50.984;7.022;2023-10-19T07:50:39;7.07;;;3.97;;
12445;SDS011;6287;50.984;7.022;2023-10-19T07:53:08;5.50;;;4.20;;
12445;SDS011;6287;50.984;7.022;2023-10-19T07:55:34;6.33;;;4.77;;
12445;SDS011;6287;50.984;7.022;2023-10-19T07:58:00;5.07;;;4.30;;
12445;SDS011;6287;50.984;7.022;2023-10-19T08:00:29;5.80;;;4.03;;
12445;SDS011;6287;50.984;7.022;2023-10-19T08:03:01;5.47;;;4.17;;
12445;SDS011;6287;50.984;7.022;2023-10-19T08:05:27;4.53;;;4.00;;
12445;SDS011;6287;50.984;7.022;2023-10-19T08:07:53;5.17;;;4.00;;
12445;SDS011;6287;50.984;7.022;2023-10-19T08:10:26;6.00;;;4.23;;
12445;SDS011;6287;50.984;7.022;2023-10-19T08:12:52;4.60;;;3.77;;
12445;SDS011;6287;50.984;7.022;2023-10-19T08:15:20;5.60;;;4.27;;
12445;SDS011;6287;50.984;7.022;2023-10-19T08:17:48;5.50;;;3.70;;
12445;SDS011;6287;50.984;7.022;2023-10-19T08:20:15;5.40;;;3.57;;
12445;SDS011;6287;50.984;7.022;2023-10-19T08:22:41;4.90;;;3.47;;
12445;SDS011;6287;50.984;7.022;2023-10-19T08:25:08;5.90;;;3.53;;
12445;SDS011;6287;50.984;7.022;2023-10-19T08:27:41;4.97;;;3.60;;
12445;SDS011;6287;50.984;7.022;2023-10-19T08:30:15;5.40;;;3.13;;
12445;SDS011;6287;50.984;7.022;2023-10-19T08:32:45;4.90;;;3.10;;
12445;SDS011;6287;50.984;7.022;2023-10-19T08:35:13;6.00;;;3.40;;
12445;SDS011;6287;50.984;7.022;2023-10-19T08:37:43;3.73;;;3.00;;
12445;SDS011;6287;50.984;7.022;2023-10-19T08:40:11;3.90;;;2.87;;
12445;SDS011;6287;50.984;7.022;2023-10-19T08:42:40;3.60;;;2.90;;
12445;SDS011;6287;50.984;7.022;2023-10-19T08:45:12;5.33;;;2.90;;
12445;SDS011;6287;50.984;7.022;2023-10-19T08:50:26;5.87;;;2.67;;
12445;SDS011;6287;50.984;7.022;2023-10-19T08:52:59;3.43;;;2.43;;
12445;SDS011;6287;50.984;7.022;2023-10-19T08:55:31;4.32;;;2.75;;
12445;SDS011;6287;50.984;7.022;2023-10-19T08:57:59;2.80;;;2.23;;
12445;SDS011;6287;50.984;7.022;2023-10-19T09:00:25;3.60;;;2.03;;
12445;SDS011;6287;50.984;7.022;2023-10-19T09:03:06;6.78;;;1.92;;
12445;SDS011;6287;50.984;7.022;2023-10-19T09:05:38;2.47;;;1.63;;
12445;SDS011;6287;50.984;7.022;2023-10-19T09:08:13;2.20;;;1.90;;
12445;SDS011;6287;50.984;7.022;2023-10-19T09:10:44;3.30;;;1.42;;
12445;SDS011;6287;50.984;7.022;2023-10-19T09:13:13;2.95;;;1.40;;
12445;SDS011;6287;50.984;7.022;2023-10-19T09:15:43;3.22;;;1.55;;
12445;SDS011;6287;50.984;7.022;2023-10-19T09:20:46;4.45;;;1.30;;
12445;SDS011;6287;50.984;7.022;2023-10-19T09:23:27;5.30;;;1.30;;
12445;SDS011;6287;50.984;7.022;2023-10-19T09:25:55;2.50;;;1.13;;
12445;SDS011;6287;50.984;7.022;2023-10-19T09:28:25;2.67;;;1.27;;
12445;SDS011;6287;50.984;7.022;2023-10-19T09:30:53;2.53;;;1.30;;
12445;SDS011;6287;50.984;7.022;2023-10-19T09:33:18;5.28;;;1.38;;
12445;SDS011;6287;50.984;7.022;2023-10-19T09:35:47;2.78;;;1.05;;
12445;SDS011;6287;50.984;7.022;2023-10-19T09:38:17;3.08;;;1.20;;
12445;SDS011;6287;50.984;7.022;2023-10-19T09:40:50;5.53;;;1.20;;
12445;SDS011;6287;50.984;7.022;2023-10-19T09:43:19;2.72;;;1.17;;
12445;SDS011;6287;50.984;7.022;2023-10-19T09:45:54;2.80;;;1.02;;
12445;SDS011;6287;50.984;7.022;2023-10-19T09:48:25;2.80;;;1.20;;
12445;SDS011;6287;50.984;7.022;2023-10-19T09:50:54;3.17;;;1.10;;
12445;SDS011;6287;50.984;7.022;2023-10-19T09:53:22;3.25;;;1.15;;
12445;SDS011;6287;50.984;7.022;2023-10-19T09:55:53;2.28;;;1.08;;
12445;SDS011;6287;50.984;7.022;2023-10-19T09:58:26;3.42;;;1.00;;
12445;SDS011;6287;50.984;7.022;2023-10-19T10:00:55;3.58;;;1.08;;
12445;SDS011;6287;50.984;7.022;2023-10-19T10:06:12;3.20;;;1.10;;
12445;SDS011;6287;50.984;7.022;2023-10-19T10:08:42;3.40;;;0.95;;
12445;SDS011;6287;50.984;7.022;2023-10-19T10:13:45;1.70;;;0.88;;
12445;SDS011;6287;50.984;7.022;2023-10-19T10:16:21;2.85;;;1.10;;
12445;SDS011;6287;50.984;7.022;2023-10-19T10:18:54;2.90;;;1.30;;
12445;SDS011;6287;50.984;7.022;2023-10-19T10:21:25;4.82;;;1.10;;
12445;SDS011;6287;50.984;7.022;2023-10-19T10:24:00;4.63;;;1.27;;
12445;SDS011;6287;50.984;7.022;2023-10-19T10:26:30;2.17;;;1.25;;
12445;SDS011;6287;50.984;7.022;2023-10-19T10:29:24;2.58;;;0.90;;
12445;SDS011;6287;50.984;7.022;2023-10-19T10:31:55;2.33;;;1.00;;
12445;SDS011;6287;50.984;7.022;2023-10-19T10:37:06;3.80;;;1.10;;
12445;SDS011;6287;50.984;7.022;2023-10-19T10:39:33;2.25;;;1.10;;
12445;SDS011;6287;50.984;7.022;2023-10-19T10:42:08;4.15;;;1.00;;
12445;SDS011;6287;50.984;7.022;2023-10-19T10:44:40;3.67;;;1.23;;
12445;SDS011;6287;50.984;7.022;2023-10-19T10:47:08;3.58;;;1.25;;
12445;SDS011;6287;50.984;7.022;2023-10-19T10:52:33;2.10;;;0.95;;
12445;SDS011;6287;50.984;7.022;2023-10-19T10:55:10;3.72;;;1.42;;
12445;SDS011;6287;50.984;7.022;2023-10-19T10:57:38;2.97;;;1.30;;
12445;SDS011;6287;50.984;7.022;2023-10-19T11:00:11;1.92;;;1.05;;
12445;SDS011;6287;50.984;7.022;2023-10-19T11:03:02;3.70;;;1.00;;
12445;SDS011;6287;50.984;7.022;2023-10-19T11:05:38;2.70;;;1.05;;
12445;SDS011;6287;50.984;7.022;2023-10-19T11:08:15;4.80;;;1.13;;
12445;SDS011;6287;50.984;7.022;2023-10-19T11:10:45;5.93;;;1.23;;
12445;SDS011;6287;50.984;7.022;2023-10-19T11:13:14;3.40;;;1.23;;
12445;SDS011;6287;50.984;7.022;2023-10-19T11:21:10;3.90;;;1.23;;
12445;SDS011;6287;50.984;7.022;2023-10-19T11:23:43;5.38;;;1.45;;
12445;SDS011;6287;50.984;7.022;2023-10-19T11:26:13;3.70;;;1.33;;
12445;SDS011;6287;50.984;7.022;2023-10-19T11:28:40;1.83;;;1.15;;
12445;SDS011;6287;50.984;7.022;2023-10-19T11:31:19;2.03;;;0.93;;
12445;SDS011;6287;50.984;7.022;2023-10-19T11:33:51;1.42;;;0.98;;
12445;SDS011;6287;50.984;7.022;2023-10-19T11:36:18;2.78;;;1.00;;
12445;SDS011;6287;50.984;7.022;2023-10-19T11:38:48;1.85;;;0.85;;
12445;SDS011;6287;50.984;7.022;2023-10-19T11:41:18;3.75;;;1.40;;
12445;SDS011;6287;50.984;7.022;2023-10-19T11:43:47;2.50;;;1.27;;
12445;SDS011;6287;50.984;7.022;2023-10-19T11:46:13;3.00;;;1.30;;
12445;SDS011;6287;50.984;7.022;2023-10-19T11:48:42;2.92;;;1.23;;
12445;SDS011;6287;50.984;7.022;2023-10-19T11:51:08;5.93;;;1.23;;
12445;SDS011;6287;50.984;7.022;2023-10-19T11:53:41;4.72;;;1.38;;
12445;SDS011;6287;50.984;7.022;2023-10-19T11:56:08;2.13;;;1.10;;
12445;SDS011;6287;50.984;7.022;2023-10-19T11:58:38;1.45;;;0.98;;
12445;SDS011;6287;50.984;7.022;2023-10-19T12:01:06;7.43;;;1.50;;
12445;SDS011;6287;50.984;7.022;2023-10-19T12:03:36;1.45;;;0.93;;
12445;SDS011;6287;50.984;7.022;2023-10-19T12:06:07;3.20;;;1.50;;
12445;SDS011;6287;50.984;7.022;2023-10-19T12:08:36;3.15;;;1.27;;
12445;SDS011;6287;50.984;7.022;2023-10-19T12:11:05;5.82;;;1.38;;
12445;SDS011;6287;50.984;7.022;2023-10-19T12:13:47;3.65;;;1.20;;
12445;SDS011;6287;50.984;7.022;2023-10-19T12:16:13;3.17;;;1.15;;
12445;SDS011;6287;50.984;7.022;2023-10-19T12:18:48;1.15;;;1.00;;
12445;SDS011;6287;50.984;7.022;2023-10-19T12:21:16;5.47;;;1.40;;
12445;SDS011;6287;50.984;7.022;2023-10-19T12:23:43;2.83;;;1.08;;
12445;SDS011;6287;50.984;7.022;2023-10-19T12:26:19;6.78;;;1.38;;
12445;SDS011;6287;50.984;7.022;2023-10-19T12:28:45;3.17;;;1.42;;
12445;SDS011;6287;50.984;7.022;2023-10-19T12:31:15;3.45;;;1.30;;
12445;SDS011;6287;50.984;7.022;2023-10-19T12:33:43;4.10;;;0.98;;
12445;SDS011;6287;50.984;7.022;2023-10-19T12:36:10;3.72;;;1.50;;
12445;SDS011;6287;50.984;7.022;2023-10-19T12:38:56;3.67;;;1.15;;
12445;SDS011;6287;50.984;7.022;2023-10-19T12:41:25;2.95;;;1.00;;
12445;SDS011;6287;50.984;7.022;2023-10-19T12:43:51;2.90;;;1.30;;
12445;SDS011;6287;50.984;7.022;2023-10-19T12:46:33;4.65;;;1.33;;
12445;SDS011;6287;50.984;7.022;2023-10-19T12:49:02;1.90;;;0.88;;
12445;SDS011;6287;50.984;7.022;2023-10-19T12:51:38;4.28;;;1.10;;
12445;SDS011;6287;50.984;7.022;2023-10-19T12:54:09;3.67;;;1.10;;
12445;SDS011;6287;50.984;7.022;2023-10-19T12:56:40;4.05;;;1.20;;
12445;SDS011;6287;50.984;7.022;2023-10-19T12:59:05;3.42;;;1.00;;
12445;SDS011;6287;50.984;7.022;2023-10-19T13:01:33;5.82;;;1.42;;
12445;SDS011;6287;50.984;7.022;2023-10-19T13:04:01;3.85;;;1.17;;
12445;SDS011;6287;50.984;7.022;2023-10-19T13:06:39;2.20;;;1.10;;
12445;SDS011;6287;50.984;7.022;2023-10-19T13:09:05;3.45;;;1.35;;
12445;SDS011;6287;50.984;7.022;2023-10-19T13:11:34;3.75;;;1.45;;
12445;SDS011;6287;50.984;7.022;2023-10-19T13:14:02;6.00;;;1.38;;
12445;SDS011;6287;50.984;7.022;2023-10-19T13:16:31;4.30;;;1.60;;
12445;SDS011;6287;50.984;7.022;2023-10-19T13:19:00;5.90;;;1.40;;
12445;SDS011;6287;50.984;7.022;2023-10-19T13:21:34;2.90;;;1.35;;
12445;SDS011;6287;50.984;7.022;2023-10-19T13:24:01;3.03;;;1.40;;
12445;SDS011;6287;50.984;7.022;2023-10-19T13:26:29;5.32;;;1.45;;
12445;SDS011;6287;50.984;7.022;2023-10-19T13:28:57;2.58;;;1.10;;
12445;SDS011;6287;50.984;7.022;2023-10-19T13:31:25;3.92;;;1.40;;
12445;SDS011;6287;50.984;7.022;2023-10-19T13:33:53;3.05;;;1.33;;
12445;SDS011;6287;50.984;7.022;2023-10-19T13:36:19;2.88;;;1.40;;
12445;SDS011;6287;50.984;7.022;2023-10-19T13:38:45;2.13;;;1.10;;
12445;SDS011;6287;50.984;7.022;2023-10-19T13:41:10;3.75;;;1.77;;
12445;SDS011;6287;50.984;7.022;2023-10-19T13:43:37;3.60;;;1.88;;
12445;SDS011;6287;50.984;7.022;2023-10-19T13:46:04;6.63;;;1.83;;
12445;SDS011;6287;50.984;7.022;2023-10-19T13:48:30;4.60;;;1.85;;
12445;SDS011;6287;50.984;7.022;2023-10-19T13:51:00;5.63;;;1.83;;
12445;SDS011;6287;50.984;7.022;2023-10-19T13:53:37;4.10;;;1.85;;
12445;SDS011;6287;50.984;7.022;2023-10-19T13:56:10;3.05;;;1.40;;
12445;SDS011;6287;50.984;7.022;2023-10-19T13:58:37;5.25;;;1.77;;
12445;SDS011;6287;50.984;7.022;2023-10-19T14:01:09;5.93;;;1.73;;
12445;SDS011;6287;50.984;7.022;2023-10-19T14:03:38;3.80;;;1.77;;
12445;SDS011;6287;50.984;7.022;2023-10-19T14:06:04;1.52;;;1.42;;
12445;SDS011;6287;50.984;7.022;2023-10-19T14:08:32;4.05;;;1.83;;
12445;SDS011;6287;50.984;7.022;2023-10-19T14:11:02;5.35;;;1.80;;
12445;SDS011;6287;50.984;7.022;2023-10-19T14:13:34;4.75;;;1.80;;
12445;SDS011;6287;50.984;7.022;2023-10-19T14:16:06;4.30;;;2.30;;
12445;SDS011;6287;50.984;7.022;2023-10-19T14:18:35;4.60;;;2.17;;
12445;SDS011;6287;50.984;7.022;2023-10-19T14:21:09;5.60;;;1.60;;
12445;SDS011;6287;50.984;7.022;2023-10-19T14:23:39;5.27;;;1.60;;
12445;SDS011;6287;50.984;7.022;2023-10-19T14:26:05;3.30;;;1.80;;
12445;SDS011;6287;50.984;7.022;2023-10-19T14:28:34;4.80;;;2.20;;
12445;SDS011;6287;50.984;7.022;2023-10-19T14:31:00;2.13;;;1.90;;
12445;SDS011;6287;50.984;7.022;2023-10-19T14:33:29;3.63;;;1.73;;
12445;SDS011;6287;50.984;7.022;2023-10-19T14:35:55;4.40;;;1.80;;
12445;SDS011;6287;50.984;7.022;2023-10-19T14:38:20;5.43;;;1.33;;
12445;SDS011;6287;50.984;7.022;2023-10-19T14:40:46;4.70;;;1.90;;
12445;SDS011;6287;50.984;7.022;2023-10-19T14:43:14;2.90;;;1.40;;
12445;SDS011;6287;50.984;7.022;2023-10-19T14:45:41;4.93;;;1.90;;
12445;SDS011;6287;50.984;7.022;2023-10-19T14:48:10;2.17;;;1.60;;
12445;SDS011;6287;50.984;7.022;2023-10-19T14:50:36;3.53;;;1.60;;
12445;SDS011;6287;50.984;7.022;2023-10-19T14:53:04;3.07;;;1.60;;
12445;SDS011;6287;50.984;7.022;2023-10-19T14:55:34;4.22;;;1.80;;
12445;SDS011;6287;50.984;7.022;2023-10-19T14:58:01;6.05;;;1.70;;
12445;SDS011;6287;50.984;7.022;2023-10-19T15:00:30;3.10;;;1.95;;
12445;SDS011;6287;50.984;7.022;2023-10-19T15:03:12;3.97;;;2.10;;
12445;SDS011;6287;50.984;7.022;2023-10-19T15:05:41;7.88;;;2.40;;
12445;SDS011;6287;50.984;7.022;2023-10-19T15:08:10;4.33;;;2.20;;
12445;SDS011;6287;50.984;7.022;2023-10-19T15:10:41;5.25;;;2.13;;
12445;SDS011;6287;50.984;7.022;2023-10-19T15:13:09;8.35;;;2.47;;
12445;SDS011;6287;50.984;7.022;2023-10-19T15:15:37;6.30;;;2.23;;
12445;SDS011;6287;50.984;7.022;2023-10-19T15:18:05;4.53;;;2.60;;
12445;SDS011;6287;50.984;7.022;2023-10-19T15:20:33;3.85;;;2.13;;
12445;SDS011;6287;50.984;7.022;2023-10-19T15:23:02;3.05;;;2.00;;
12445;SDS011;6287;50.984;7.022;2023-10-19T15:25:30;4.25;;;2.28;;
12445;SDS011;6287;50.984;7.022;2023-10-19T15:28:01;4.07;;;2.38;;
12445;SDS011;6287;50.984;7.022;2023-10-19T15:30:32;4.28;;;2.90;;
12445;SDS011;6287;50.984;7.022;2023-10-19T15:32:58;6.03;;;2.85;;
12445;SDS011;6287;50.984;7.022;2023-10-19T15:35:23;2.88;;;2.50;;
12445;SDS011;6287;50.984;7.022;2023-10-19T15:37:52;5.55;;;2.55;;
12445;SDS011;6287;50.984;7.022;2023-10-19T15:40:21;3.97;;;2.10;;
12445;SDS011;6287;50.984;7.022;2023-10-19T15:42:48;4.07;;;2.47;;
12445;SDS011;6287;50.984;7.022;2023-10-19T15:45:15;5.83;;;2.40;;
12445;SDS011;6287;50.984;7.022;2023-10-19T15:47:46;4.28;;;2.65;;